sensor_id;sensor_type;location;lat;lon;timestamp;pressure;altitude;pressure_sealevel;temperature;humidity
4834;BME280;12895;51.064;7.028;2023-06-22T00:01:19;100907.34;;;23.80;50.80
4834;BME280;12895;51.064;7.028;2023-06-22T00:04:06;100905.84;;;23.71;51.69
4834;BME280;12895;51.064;7.028;2023-06-22T00:06:53;100911.50;;;23.86;50.50
4834;BME280;12895;51.064;7.028;2023-06-22T00:09:42;100910.03;;;24.00;49.62
4834;BME280;12895;51.064;7.028;2023-06-22T00:12:29;100904.75;;;23.89;50.79
4834;BME280;12895;51.064;7.028;2023-06-22T00:15:16;100903.59;;;23.77;51.40
4834;BME280;12895;51.064;7.028;2023-06-22T00:18:03;100903.19;;;23.73;51.39
4834;BME280;12895;51.064;7.028;2023-06-22T00:20:50;100906.56;;;23.72;50.60
4834;BME280;12895;51.064;7.028;2023-06-22T00:23:42;100906.19;;;23.60;52.26
4834;BME280;12895;51.064;7.028;2023-06-22T00:26:30;100906.53;;;23.49;51.82
4834;BME280;12895;51.064;7.028;2023-06-22T00:29:17;100920.44;;;23.47;52.00
4834;BME280;12895;51.064;7.028;2023-06-22T00:32:05;100914.75;;;23.25;52.35
4834;BME280;12895;51.064;7.028;2023-06-22T00:34:52;100914.41;;;23.36;51.61
4834;BME280;12895;51.064;7.028;2023-06-22T00:37:39;100913.50;;;23.56;50.89
4834;BME280;12895;51.064;7.028;2023-06-22T00:40:28;100916.72;;;23.60;50.68
4834;BME280;12895;51.064;7.028;2023-06-22T00:43:16;100911.06;;;23.67;50.24
4834;BME280;12895;51.064;7.028;2023-06-22T00:46:03;100911.06;;;23.67;50.12
4834;BME280;12895;51.064;7.028;2023-06-22T00:48:51;100905.13;;;24.01;48.84
4834;BME280;12895;51.064;7.028;2023-06-22T00:51:42;100914.19;;;23.92;49.24
4834;BME280;12895;51.064;7.028;2023-06-22T00:54:31;100909.47;;;24.02;48.30
4834;BME280;12895;51.064;7.028;2023-06-22T00:57:20;100914.47;;;23.73;50.15
4834;BME280;12895;51.064;7.028;2023-06-22T01:00:09;100903.38;;;23.68;50.72
4834;BME280;12895;51.064;7.028;2023-06-22T01:03:03;100917.84;;;23.57;50.44
4834;BME280;12895;51.064;7.028;2023-06-22T01:05:58;100906.53;;;23.49;50.70
4834;BME280;12895;51.064;7.028;2023-06-22T01:08:51;100908.41;;;23.54;49.09
4834;BME280;12895;51.064;7.028;2023-06-22T01:11:43;100901.28;;;23.53;51.25
4834;BME280;12895;51.064;7.028;2023-06-22T01:14:35;100907.09;;;23.55;48.84
4834;BME280;12895;51.064;7.028;2023-06-22T01:17:26;100899.59;;;23.65;48.43
4834;BME280;12895;51.064;7.028;2023-06-22T01:20:14;100905.44;;;23.67;50.38
4834;BME280;12895;51.064;7.028;2023-06-22T01:23:09;100902.06;;;23.61;49.07
4834;BME280;12895;51.064;7.028;2023-06-22T01:26:17;100904.09;;;23.53;48.91
4834;BME280;12895;51.064;7.028;2023-06-22T01:29:08;100900.50;;;23.45;48.91
4834;BME280;12895;51.064;7.028;2023-06-22T01:31:58;100895.63;;;23.53;48.98
4834;BME280;12895;51.064;7.028;2023-06-22T01:34:49;100887.94;;;23.61;48.22
4834;BME280;12895;51.064;7.028;2023-06-22T01:37:37;100882.84;;;23.67;48.19
4834;BME280;12895;51.064;7.028;2023-06-22T01:40:25;100881.56;;;23.68;48.32
4834;BME280;12895;51.064;7.028;2023-06-22T01:43:12;100873.84;;;23.61;48.11
4834;BME280;12895;51.064;7.028;2023-06-22T01:46:02;100878.50;;;23.51;48.58
4834;BME280;12895;51.064;7.028;2023-06-22T01:48:50;100879.44;;;23.46;48.71
4834;BME280;12895;51.064;7.028;2023-06-22T01:51:37;100870.03;;;23.44;48.68
4834;BME280;12895;51.064;7.028;2023-06-22T01:54:24;100869.81;;;23.34;49.01
4834;BME280;12895;51.064;7.028;2023-06-22T01:57:11;100873.75;;;23.31;49.00
4834;BME280;12895;51.064;7.028;2023-06-22T02:00:00;100868.06;;;23.16;49.37
4834;BME280;12895;51.064;7.028;2023-06-22T02:02:53;100871.03;;;23.11;49.42
4834;BME280;12895;51.064;7.028;2023-06-22T02:05:52;100875.94;;;23.10;49.51
4834;BME280;12895;51.064;7.028;2023-06-22T02:08:46;100868.75;;;23.09;49.43
4834;BME280;12895;51.064;7.028;2023-06-22T02:11:36;100859.41;;;23.14;49.29
4834;BME280;12895;51.064;7.028;2023-06-22T02:14:24;100860.72;;;23.13;49.25
4834;BME280;12895;51.064;7.028;2023-06-22T02:17:12;100868.38;;;23.05;49.55
4834;BME280;12895;51.064;7.028;2023-06-22T02:20:02;100864.25;;;23.06;49.51
4834;BME280;12895;51.064;7.028;2023-06-22T02:22:55;100870.59;;;22.99;49.66
4834;BME280;12895;51.064;7.028;2023-06-22T02:25:42;100864.06;;;23.04;49.57
4834;BME280;12895;51.064;7.028;2023-06-22T02:28:30;100866.84;;;22.97;49.90
4834;BME280;12895;51.064;7.028;2023-06-22T02:31:17;100867.22;;;22.93;49.97
4834;BME280;12895;51.064;7.028;2023-06-22T02:34:06;100863.81;;;22.95;50.08
4834;BME280;12895;51.064;7.028;2023-06-22T02:36:54;100862.75;;;23.05;49.52
4834;BME280;12895;51.064;7.028;2023-06-22T02:39:41;100860.44;;;22.96;50.05
4834;BME280;12895;51.064;7.028;2023-06-22T02:42:28;100863.44;;;22.98;49.90
4834;BME280;12895;51.064;7.028;2023-06-22T02:45:15;100861.22;;;23.04;49.88
4834;BME280;12895;51.064;7.028;2023-06-22T02:48:03;100851.78;;;22.94;51.38
4834;BME280;12895;51.064;7.028;2023-06-22T02:50:51;100847.72;;;23.10;50.00
4834;BME280;12895;51.064;7.028;2023-06-22T02:53:39;100845.81;;;23.05;50.57
4834;BME280;12895;51.064;7.028;2023-06-22T02:56:30;100833.41;;;23.08;49.59
4834;BME280;12895;51.064;7.028;2023-06-22T02:59:20;100831.00;;;23.12;49.64
4834;BME280;12895;51.064;7.028;2023-06-22T03:02:10;100826.28;;;23.07;49.83
4834;BME280;12895;51.064;7.028;2023-06-22T03:04:58;100827.31;;;23.25;49.78
4834;BME280;12895;51.064;7.028;2023-06-22T03:07:47;100820.00;;;23.29;49.66
4834;BME280;12895;51.064;7.028;2023-06-22T03:10:35;100823.00;;;23.46;48.80
4834;BME280;12895;51.064;7.028;2023-06-22T03:13:23;100813.53;;;23.14;50.23
4834;BME280;12895;51.064;7.028;2023-06-22T03:16:10;100812.34;;;22.94;51.53
4834;BME280;12895;51.064;7.028;2023-06-22T03:18:57;100819.84;;;22.92;50.73
4834;BME280;12895;51.064;7.028;2023-06-22T03:21:44;100817.59;;;22.90;50.74
4834;BME280;12895;51.064;7.028;2023-06-22T03:24:31;100815.25;;;22.74;52.11
4834;BME280;12895;51.064;7.028;2023-06-22T03:27:21;100820.78;;;22.52;53.45
4834;BME280;12895;51.064;7.028;2023-06-22T03:30:10;100816.66;;;22.53;52.39
4834;BME280;12895;51.064;7.028;2023-06-22T03:32:57;100819.69;;;22.55;53.07
4834;BME280;12895;51.064;7.028;2023-06-22T03:35:46;100813.91;;;22.40;53.96
4834;BME280;12895;51.064;7.028;2023-06-22T03:38:33;100812.84;;;22.43;53.43
4834;BME280;12895;51.064;7.028;2023-06-22T03:41:20;100811.09;;;22.40;53.95
4834;BME280;12895;51.064;7.028;2023-06-22T03:44:09;100808.00;;;22.51;52.57
4834;BME280;12895;51.064;7.028;2023-06-22T03:46:58;100806.91;;;22.54;52.87
4834;BME280;12895;51.064;7.028;2023-06-22T03:49:45;100810.72;;;22.64;52.48
4834;BME280;12895;51.064;7.028;2023-06-22T03:52:32;100805.88;;;22.72;51.87
4834;BME280;12895;51.064;7.028;2023-06-22T03:55:19;100816.41;;;22.78;52.72
4834;BME280;12895;51.064;7.028;2023-06-22T03:58:06;100809.03;;;22.68;54.54
4834;BME280;12895;51.064;7.028;2023-06-22T04:00:56;100798.69;;;22.63;53.77
4834;BME280;12895;51.064;7.028;2023-06-22T04:03:43;100810.53;;;22.62;54.81
4834;BME280;12895;51.064;7.028;2023-06-22T04:06:33;100807.31;;;22.65;54.10
4834;BME280;12895;51.064;7.028;2023-06-22T04:09:20;100805.59;;;22.55;54.21
4834;BME280;12895;51.064;7.028;2023-06-22T04:12:08;100801.66;;;22.58;55.42
4834;BME280;12895;51.064;7.028;2023-06-22T04:14:55;100801.31;;;22.61;53.08
4834;BME280;12895;51.064;7.028;2023-06-22T04:17:43;100813.38;;;22.76;53.17
4834;BME280;12895;51.064;7.028;2023-06-22T04:20:31;100802.84;;;22.69;56.28
4834;BME280;12895;51.064;7.028;2023-06-22T04:23:18;100800.53;;;22.61;55.46
4834;BME280;12895;51.064;7.028;2023-06-22T04:26:05;100803.63;;;22.77;54.90
4834;BME280;12895;51.064;7.028;2023-06-22T04:28:52;100800.69;;;22.90;55.40
4834;BME280;12895;51.064;7.028;2023-06-22T04:31:41;100801.44;;;22.98;53.23
4834;BME280;12895;51.064;7.028;2023-06-22T04:34:29;100806.31;;;22.90;52.65
4834;BME280;12895;51.064;7.028;2023-06-22T04:37:16;100797.88;;;22.90;55.20
4834;BME280;12895;51.064;7.028;2023-06-22T04:40:04;100799.75;;;22.95;55.03
4834;BME280;12895;51.064;7.028;2023-06-22T04:42:52;100804.44;;;22.93;55.41
4834;BME280;12895;51.064;7.028;2023-06-22T04:45:40;100801.06;;;22.94;54.53
4834;BME280;12895;51.064;7.028;2023-06-22T04:48:27;100812.38;;;23.09;53.76
4834;BME280;12895;51.064;7.028;2023-06-22T04:51:19;100811.69;;;23.24;53.26
4834;BME280;12895;51.064;7.028;2023-06-22T04:54:08;100810.94;;;23.16;55.16
4834;BME280;12895;51.064;7.028;2023-06-22T04:56:55;100803.22;;;23.24;54.17
4834;BME280;12895;51.064;7.028;2023-06-22T04:59:43;100809.06;;;23.33;53.51
4834;BME280;12895;51.064;7.028;2023-06-22T05:02:30;100809.44;;;23.37;53.70
4834;BME280;12895;51.064;7.028;2023-06-22T05:05:17;100814.00;;;23.40;54.24
4834;BME280;12895;51.064;7.028;2023-06-22T05:08:05;100813.63;;;23.59;53.96
4834;BME280;12895;51.064;7.028;2023-06-22T05:10:52;100822.63;;;23.50;55.17
4834;BME280;12895;51.064;7.028;2023-06-22T05:13:39;100814.19;;;23.57;54.35
4834;BME280;12895;51.064;7.028;2023-06-22T05:16:26;100803.66;;;23.80;54.62
4834;BME280;12895;51.064;7.028;2023-06-22T05:19:13;100803.47;;;23.78;56.60
4834;BME280;12895;51.064;7.028;2023-06-22T05:22:00;100806.09;;;23.76;55.64
4834;BME280;12895;51.064;7.028;2023-06-22T05:24:49;100798.00;;;23.80;54.58
4834;BME280;12895;51.064;7.028;2023-06-22T05:27:36;100797.09;;;23.85;54.79
4834;BME280;12895;51.064;7.028;2023-06-22T05:30:25;100796.53;;;23.94;54.82
4834;BME280;12895;51.064;7.028;2023-06-22T05:33:12;100801.63;;;23.88;54.69
4834;BME280;12895;51.064;7.028;2023-06-22T05:35:59;100804.59;;;23.75;54.36
4834;BME280;12895;51.064;7.028;2023-06-22T05:38:46;100819.25;;;23.51;55.60
4834;BME280;12895;51.064;7.028;2023-06-22T05:41:34;100821.31;;;23.43;55.73
4834;BME280;12895;51.064;7.028;2023-06-22T05:44:21;100818.13;;;23.39;55.89
4834;BME280;12895;51.064;7.028;2023-06-22T05:47:08;100808.53;;;23.35;57.98
4834;BME280;12895;51.064;7.028;2023-06-22T05:49:55;100807.19;;;23.28;60.79
4834;BME280;12895;51.064;7.028;2023-06-22T05:52:42;100800.41;;;23.24;59.91
4834;BME280;12895;51.064;7.028;2023-06-22T05:55:29;100815.84;;;23.30;58.82
4834;BME280;12895;51.064;7.028;2023-06-22T05:58:17;100819.81;;;23.42;58.44
4834;BME280;12895;51.064;7.028;2023-06-22T06:01:04;100814.34;;;23.44;58.17
4834;BME280;12895;51.064;7.028;2023-06-22T06:03:51;100813.78;;;23.38;57.92
4834;BME280;12895;51.064;7.028;2023-06-22T06:06:38;100815.88;;;23.60;58.09
4834;BME280;12895;51.064;7.028;2023-06-22T06:09:25;100821.94;;;23.87;57.65
4834;BME280;12895;51.064;7.028;2023-06-22T06:12:12;100826.66;;;23.99;58.04
4834;BME280;12895;51.064;7.028;2023-06-22T06:15:00;100827.94;;;23.91;59.52
4834;BME280;12895;51.064;7.028;2023-06-22T06:17:48;100824.00;;;23.86;60.29
4834;BME280;12895;51.064;7.028;2023-06-22T06:20:35;100824.38;;;23.98;59.06
4834;BME280;12895;51.064;7.028;2023-06-22T06:23:22;100824.56;;;24.07;60.48
4834;BME280;12895;51.064;7.028;2023-06-22T06:26:09;100827.94;;;24.13;58.87
4834;BME280;12895;51.064;7.028;2023-06-22T06:28:56;100830.22;;;24.07;59.22
4834;BME280;12895;51.064;7.028;2023-06-22T06:31:45;100825.63;;;24.34;60.23
4834;BME280;12895;51.064;7.028;2023-06-22T06:34:33;100836.28;;;24.73;56.60
4834;BME280;12895;51.064;7.028;2023-06-22T06:37:20;100829.25;;;24.89;56.54
4834;BME280;12895;51.064;7.028;2023-06-22T06:40:07;100829.41;;;25.38;55.48
4834;BME280;12895;51.064;7.028;2023-06-22T06:42:56;100841.34;;;26.10;52.93
4834;BME280;12895;51.064;7.028;2023-06-22T06:45:43;100839.69;;;26.24;52.43
4834;BME280;12895;51.064;7.028;2023-06-22T06:48:31;100843.00;;;26.71;51.52
4834;BME280;12895;51.064;7.028;2023-06-22T06:51:18;100839.53;;;26.39;53.05
4834;BME280;12895;51.064;7.028;2023-06-22T06:54:05;100842.13;;;26.44;52.97
4834;BME280;12895;51.064;7.028;2023-06-22T06:56:52;100830.38;;;26.31;54.77
4834;BME280;12895;51.064;7.028;2023-06-22T06:59:39;100827.66;;;26.16;53.85
4834;BME280;12895;51.064;7.028;2023-06-22T07:02:26;100829.66;;;26.06;53.69
4834;BME280;12895;51.064;7.028;2023-06-22T07:05:16;100816.34;;;26.33;52.56
4834;BME280;12895;51.064;7.028;2023-06-22T07:08:03;100820.38;;;26.30;52.67
4834;BME280;12895;51.064;7.028;2023-06-22T07:10:51;100827.97;;;26.61;52.35
4834;BME280;12895;51.064;7.028;2023-06-22T07:13:38;100815.06;;;26.68;51.07
4834;BME280;12895;51.064;7.028;2023-06-22T07:16:25;100811.06;;;26.54;51.83
4834;BME280;12895;51.064;7.028;2023-06-22T07:19:13;100802.59;;;26.29;54.12
4834;BME280;12895;51.064;7.028;2023-06-22T07:22:02;100792.19;;;26.49;53.82
4834;BME280;12895;51.064;7.028;2023-06-22T07:24:49;100793.53;;;26.48;52.51
4834;BME280;12895;51.064;7.028;2023-06-22T07:27:37;100791.69;;;26.26;53.65
4834;BME280;12895;51.064;7.028;2023-06-22T07:30:25;100793.47;;;25.97;54.21
4834;BME280;12895;51.064;7.028;2023-06-22T07:33:15;100786.66;;;26.17;53.15
4834;BME280;12895;51.064;7.028;2023-06-22T07:36:03;100785.25;;;26.08;53.97
4834;BME280;12895;51.064;7.028;2023-06-22T07:38:54;100785.53;;;26.20;53.33
4834;BME280;12895;51.064;7.028;2023-06-22T07:41:41;100783.78;;;26.24;54.05
4834;BME280;12895;51.064;7.028;2023-06-22T07:44:28;100769.84;;;26.19;54.44
4834;BME280;12895;51.064;7.028;2023-06-22T07:47:15;100777.34;;;26.24;53.80
4834;BME280;12895;51.064;7.028;2023-06-22T07:50:04;100771.53;;;26.39;53.30
4834;BME280;12895;51.064;7.028;2023-06-22T07:52:51;100765.09;;;26.21;53.42
4834;BME280;12895;51.064;7.028;2023-06-22T07:55:40;100760.50;;;26.43;52.53
4834;BME280;12895;51.064;7.028;2023-06-22T07:58:27;100754.00;;;26.50;52.48
4834;BME280;12895;51.064;7.028;2023-06-22T08:01:14;100740.50;;;26.41;54.16
4834;BME280;12895;51.064;7.028;2023-06-22T08:04:02;100746.19;;;26.41;52.93
4834;BME280;12895;51.064;7.028;2023-06-22T08:06:51;100739.16;;;26.42;53.82
4834;BME280;12895;51.064;7.028;2023-06-22T08:09:38;100744.84;;;26.42;53.47
4834;BME280;12895;51.064;7.028;2023-06-22T08:12:27;100736.81;;;26.65;51.63
4834;BME280;12895;51.064;7.028;2023-06-22T08:15:14;100730.19;;;26.79;51.87
4834;BME280;12895;51.064;7.028;2023-06-22T08:18:00;100731.69;;;26.80;51.99
4834;BME280;12895;51.064;7.028;2023-06-22T08:20:47;100727.44;;;26.89;51.54
4834;BME280;12895;51.064;7.028;2023-06-22T08:23:35;100719.28;;;26.76;52.44
4834;BME280;12895;51.064;7.028;2023-06-22T08:26:22;100708.28;;;26.80;51.83
4834;BME280;12895;51.064;7.028;2023-06-22T08:29:10;100698.63;;;26.92;51.81
4834;BME280;12895;51.064;7.028;2023-06-22T08:31:57;100696.56;;;27.29;52.05
4834;BME280;12895;51.064;7.028;2023-06-22T08:34:44;100687.91;;;27.27;50.08
4834;BME280;12895;51.064;7.028;2023-06-22T08:37:31;100689.59;;;27.39;49.53
4834;BME280;12895;51.064;7.028;2023-06-22T08:40:21;100689.69;;;27.32;51.63
4834;BME280;12895;51.064;7.028;2023-06-22T08:43:08;100685.75;;;27.54;50.33
4834;BME280;12895;51.064;7.028;2023-06-22T08:45:56;100689.00;;;27.41;51.47
4834;BME280;12895;51.064;7.028;2023-06-22T08:48:43;100679.31;;;27.44;50.89
4834;BME280;12895;51.064;7.028;2023-06-22T08:51:30;100689.78;;;27.70;50.34
4834;BME280;12895;51.064;7.028;2023-06-22T08:54:17;100673.19;;;27.66;50.43
4834;BME280;12895;51.064;7.028;2023-06-22T08:57:04;100675.34;;;27.85;50.12
4834;BME280;12895;51.064;7.028;2023-06-22T08:59:52;100674.31;;;27.90;50.93
4834;BME280;12895;51.064;7.028;2023-06-22T09:02:40;100669.50;;;28.40;49.05
4834;BME280;12895;51.064;7.028;2023-06-22T09:05:27;100650.00;;;28.74;48.34
4834;BME280;12895;51.064;7.028;2023-06-22T09:08:14;100647.00;;;29.12;46.92
4834;BME280;12895;51.064;7.028;2023-06-22T09:11:01;100644.66;;;29.29;47.44
4834;BME280;12895;51.064;7.028;2023-06-22T09:13:48;100643.19;;;29.28;48.05
4834;BME280;12895;51.064;7.028;2023-06-22T09:16:36;100629.44;;;29.15;47.43
4834;BME280;12895;51.064;7.028;2023-06-22T09:19:25;100629.13;;;29.51;45.23
4834;BME280;12895;51.064;7.028;2023-06-22T09:22:12;100634.09;;;29.41;45.23
4834;BME280;12895;51.064;7.028;2023-06-22T09:24:59;100630.19;;;29.46;46.11
4834;BME280;12895;51.064;7.028;2023-06-22T09:27:46;100629.25;;;29.53;45.71
4834;BME280;12895;51.064;7.028;2023-06-22T09:30:33;100628.84;;;29.68;45.60
4834;BME280;12895;51.064;7.028;2023-06-22T09:33:20;100623.91;;;30.01;44.54
4834;BME280;12895;51.064;7.028;2023-06-22T09:36:08;100613.63;;;29.96;46.49
4834;BME280;12895;51.064;7.028;2023-06-22T09:38:55;100618.34;;;30.03;46.21
4834;BME280;12895;51.064;7.028;2023-06-22T09:41:44;100607.25;;;30.07;44.35
4834;BME280;12895;51.064;7.028;2023-06-22T09:44:31;100602.56;;;30.12;43.93
4834;BME280;12895;51.064;7.028;2023-06-22T09:47:18;100601.06;;;30.22;44.24
4834;BME280;12895;51.064;7.028;2023-06-22T09:50:06;100601.00;;;30.32;44.34
4834;BME280;12895;51.064;7.028;2023-06-22T09:52:54;100592.47;;;30.43;44.29
4834;BME280;12895;51.064;7.028;2023-06-22T09:55:41;100600.44;;;30.79;43.16
4834;BME280;12895;51.064;7.028;2023-06-22T09:58:28;100602.81;;;30.94;43.02
4834;BME280;12895;51.064;7.028;2023-06-22T10:01:15;100596.75;;;30.77;43.61
4834;BME280;12895;51.064;7.028;2023-06-22T10:04:02;100593.53;;;30.82;43.37
4834;BME280;12895;51.064;7.028;2023-06-22T10:06:49;100600.34;;;30.77;43.29
4834;BME280;12895;51.064;7.028;2023-06-22T10:09:37;100594.00;;;31.13;41.57
4834;BME280;12895;51.064;7.028;2023-06-22T10:12:26;100600.94;;;30.87;44.20
4834;BME280;12895;51.064;7.028;2023-06-22T10:15:13;100594.25;;;30.94;43.10
4834;BME280;12895;51.064;7.028;2023-06-22T10:18:00;100606.47;;;30.39;43.23
4834;BME280;12895;51.064;7.028;2023-06-22T10:20:49;100615.00;;;30.39;42.25
4834;BME280;12895;51.064;7.028;2023-06-22T10:23:37;100611.69;;;30.10;42.85
4834;BME280;12895;51.064;7.028;2023-06-22T10:26:25;100642.63;;;29.20;45.50
4834;BME280;12895;51.064;7.028;2023-06-22T10:29:14;100655.41;;;28.61;47.50
4834;BME280;12895;51.064;7.028;2023-06-22T10:32:01;100666.22;;;28.24;54.43
4834;BME280;12895;51.064;7.028;2023-06-22T10:34:48;100671.91;;;27.77;57.45
4834;BME280;12895;51.064;7.028;2023-06-22T10:37:35;100682.53;;;27.31;57.08
4834;BME280;12895;51.064;7.028;2023-06-22T10:40:23;100670.16;;;27.00;58.59
4834;BME280;12895;51.064;7.028;2023-06-22T10:43:11;100666.44;;;26.71;61.45
4834;BME280;12895;51.064;7.028;2023-06-22T10:45:58;100677.97;;;26.56;64.32
4834;BME280;12895;51.064;7.028;2023-06-22T10:48:45;100680.34;;;26.33;63.37
4834;BME280;12895;51.064;7.028;2023-06-22T10:51:32;100691.19;;;26.10;67.00
4834;BME280;12895;51.064;7.028;2023-06-22T10:54:19;100703.69;;;25.90;69.48
4834;BME280;12895;51.064;7.028;2023-06-22T10:57:06;100708.47;;;25.63;73.09
4834;BME280;12895;51.064;7.028;2023-06-22T10:59:55;100738.25;;;25.15;73.25
4834;BME280;12895;51.064;7.028;2023-06-22T11:02:42;100734.34;;;24.79;73.17
4834;BME280;12895;51.064;7.028;2023-06-22T11:05:29;100734.63;;;24.51;72.28
4834;BME280;12895;51.064;7.028;2023-06-22T11:08:16;100736.56;;;24.41;73.42
4834;BME280;12895;51.064;7.028;2023-06-22T11:11:03;100742.06;;;24.24;74.46
4834;BME280;12895;51.064;7.028;2023-06-22T11:13:50;100748.66;;;24.26;74.10
4834;BME280;12895;51.064;7.028;2023-06-22T11:16:38;100749.19;;;24.32;73.41
4834;BME280;12895;51.064;7.028;2023-06-22T11:19:25;100747.34;;;24.27;73.59
4834;BME280;12895;51.064;7.028;2023-06-22T11:22:13;100745.13;;;24.03;73.75
4834;BME280;12895;51.064;7.028;2023-06-22T11:24:59;100720.31;;;23.79;77.44
4834;BME280;12895;51.064;7.028;2023-06-22T11:27:46;100690.19;;;23.74;77.12
4834;BME280;12895;51.064;7.028;2023-06-22T11:30:33;100653.50;;;23.89;76.84
4834;BME280;12895;51.064;7.028;2023-06-22T11:33:22;100629.09;;;24.24;76.16
4834;BME280;12895;51.064;7.028;2023-06-22T11:36:09;100637.22;;;24.52;75.25
4834;BME280;12895;51.064;7.028;2023-06-22T11:38:56;100648.75;;;24.78;74.15
4834;BME280;12895;51.064;7.028;2023-06-22T11:41:43;100645.53;;;25.06;73.92
4834;BME280;12895;51.064;7.028;2023-06-22T11:44:30;100617.50;;;25.25;73.92
4834;BME280;12895;51.064;7.028;2023-06-22T11:47:17;100617.06;;;25.70;70.99
4834;BME280;12895;51.064;7.028;2023-06-22T11:50:07;100613.97;;;25.92;71.22
4834;BME280;12895;51.064;7.028;2023-06-22T11:52:54;100590.22;;;26.05;69.17
4834;BME280;12895;51.064;7.028;2023-06-22T11:55:41;100556.72;;;26.11;69.44
4834;BME280;12895;51.064;7.028;2023-06-22T11:58:28;100512.09;;;25.85;70.49
4834;BME280;12895;51.064;7.028;2023-06-22T12:01:15;100502.78;;;25.92;70.41
4834;BME280;12895;51.064;7.028;2023-06-22T12:04:02;100523.59;;;25.87;69.32
4834;BME280;12895;51.064;7.028;2023-06-22T12:06:52;100553.09;;;25.50;70.33
4834;BME280;12895;51.064;7.028;2023-06-22T12:09:39;100563.22;;;25.19;70.58
4834;BME280;12895;51.064;7.028;2023-06-22T12:12:26;100560.44;;;25.36;69.38
4834;BME280;12895;51.064;7.028;2023-06-22T12:15:13;100553.59;;;25.39;70.77
4834;BME280;12895;51.064;7.028;2023-06-22T12:18:00;100538.50;;;26.31;72.36
4834;BME280;12895;51.064;7.028;2023-06-22T12:20:48;100526.44;;;27.21;67.90
4834;BME280;12895;51.064;7.028;2023-06-22T12:23:36;100528.78;;;28.01;64.27
4834;BME280;12895;51.064;7.028;2023-06-22T12:26:23;100520.38;;;28.22;63.28
4834;BME280;12895;51.064;7.028;2023-06-22T12:29:10;100515.28;;;28.20;62.14
4834;BME280;12895;51.064;7.028;2023-06-22T12:31:57;100517.81;;;28.26;61.55
4834;BME280;12895;51.064;7.028;2023-06-22T12:34:44;100513.03;;;28.19;60.85
4834;BME280;12895;51.064;7.028;2023-06-22T12:37:31;100520.78;;;27.78;62.96
4834;BME280;12895;51.064;7.028;2023-06-22T12:40:20;100524.06;;;27.75;62.17
4834;BME280;12895;51.064;7.028;2023-06-22T12:43:08;100511.34;;;27.85;62.29
4834;BME280;12895;51.064;7.028;2023-06-22T12:45:55;100499.28;;;28.25;61.87
4834;BME280;12895;51.064;7.028;2023-06-22T12:48:42;100490.03;;;28.55;62.29
4834;BME280;12895;51.064;7.028;2023-06-22T12:51:29;100490.38;;;28.80;60.92
4834;BME280;12895;51.064;7.028;2023-06-22T12:54:17;100482.22;;;28.86;58.93
4834;BME280;12895;51.064;7.028;2023-06-22T12:57:06;100478.97;;;28.80;59.80
4834;BME280;12895;51.064;7.028;2023-06-22T12:59:53;100459.06;;;29.21;58.85
4834;BME280;12895;51.064;7.028;2023-06-22T13:02:40;100458.63;;;29.36;57.59
4834;BME280;12895;51.064;7.028;2023-06-22T13:05:28;100454.75;;;29.20;60.08
4834;BME280;12895;51.064;7.028;2023-06-22T13:08:16;100459.66;;;29.62;58.25
4834;BME280;12895;51.064;7.028;2023-06-22T13:11:03;100451.63;;;29.81;55.06
4834;BME280;12895;51.064;7.028;2023-06-22T13:13:51;100455.63;;;29.99;54.57
4834;BME280;12895;51.064;7.028;2023-06-22T13:16:38;100446.88;;;30.41;54.67
4834;BME280;12895;51.064;7.028;2023-06-22T13:19:25;100443.91;;;30.39;52.83
4834;BME280;12895;51.064;7.028;2023-06-22T13:22:29;100435.72;;;30.45;55.59
4834;BME280;12895;51.064;7.028;2023-06-22T13:25:16;100434.34;;;30.69;53.11
4834;BME280;12895;51.064;7.028;2023-06-22T13:28:04;100438.56;;;30.68;52.51
4834;BME280;12895;51.064;7.028;2023-06-22T13:30:53;100424.75;;;30.88;50.29
4834;BME280;12895;51.064;7.028;2023-06-22T13:33:40;100422.03;;;30.78;51.08
4834;BME280;12895;51.064;7.028;2023-06-22T13:36:27;100416.63;;;30.36;52.48
4834;BME280;12895;51.064;7.028;2023-06-22T13:39:16;100405.81;;;30.69;50.68
4834;BME280;12895;51.064;7.028;2023-06-22T13:42:03;100398.44;;;30.89;50.79
4834;BME280;12895;51.064;7.028;2023-06-22T13:44:50;100385.53;;;30.88;51.02
4834;BME280;12895;51.064;7.028;2023-06-22T13:47:39;100374.81;;;31.00;51.75
4834;BME280;12895;51.064;7.028;2023-06-22T13:50:26;100366.59;;;31.56;49.75
4834;BME280;12895;51.064;7.028;2023-06-22T13:53:14;100366.28;;;31.25;49.32
4834;BME280;12895;51.064;7.028;2023-06-22T13:56:02;100362.09;;;30.90;50.88
4834;BME280;12895;51.064;7.028;2023-06-22T13:58:49;100351.06;;;31.09;51.01
4834;BME280;12895;51.064;7.028;2023-06-22T14:01:36;100342.31;;;30.94;50.03
4834;BME280;12895;51.064;7.028;2023-06-22T14:04:25;100329.75;;;30.74;50.09
4834;BME280;12895;51.064;7.028;2023-06-22T14:07:14;100318.41;;;30.62;51.05
4834;BME280;12895;51.064;7.028;2023-06-22T14:10:01;100306.41;;;30.77;50.65
4834;BME280;12895;51.064;7.028;2023-06-22T14:12:48;100298.34;;;30.37;51.90
4834;BME280;12895;51.064;7.028;2023-06-22T14:15:35;100303.47;;;29.81;53.50
4834;BME280;12895;51.064;7.028;2023-06-22T14:18:22;100303.56;;;30.29;51.24
4834;BME280;12895;51.064;7.028;2023-06-22T14:21:10;100295.91;;;30.68;49.00
4834;BME280;12895;51.064;7.028;2023-06-22T14:23:57;100294.63;;;31.46;45.56
4834;BME280;12895;51.064;7.028;2023-06-22T14:26:44;100289.81;;;31.24;46.90
4834;BME280;12895;51.064;7.028;2023-06-22T14:29:32;100277.72;;;30.62;48.64
4834;BME280;12895;51.064;7.028;2023-06-22T14:32:19;100269.41;;;29.83;49.52
4834;BME280;12895;51.064;7.028;2023-06-22T14:35:06;100251.56;;;29.48;50.22
4834;BME280;12895;51.064;7.028;2023-06-22T14:37:55;100229.06;;;29.75;45.34
4834;BME280;12895;51.064;7.028;2023-06-22T14:40:42;100234.25;;;29.67;48.27
4834;BME280;12895;51.064;7.028;2023-06-22T14:43:29;100240.94;;;29.60;51.36
4834;BME280;12895;51.064;7.028;2023-06-22T14:46:16;100233.50;;;29.67;49.38
4834;BME280;12895;51.064;7.028;2023-06-22T14:49:04;100226.91;;;29.18;51.55